Metar Cercanos

 

LEPA - Palma De Mallorc, Spain
Distance from station: ONO 38km
Actualización: 16/07/2018 18:00
Few Clouds
Few Clouds
 Viento del NNO
Viento: NNO 20 km/h
Temperatura: 31°C
Indice Calor: 31°C
Rocío: 16°C
Humedad: 40%
Barómetro: 1014 hPa
Clouds: Few Clouds
Visibility: 10 km
Cloud details: Few Clouds 1067 m
2018/07/16 16:00 LEPA 161600Z 33011KT 280V360 9999 FEW035 31/16 Q1014 NOSIG
LEMH - Mahon/Menorca Is, Spain
Distance from station: ENE 105km
Actualización: 16/07/2018 18:00
Parcialmente nuboso
Parcialmente nuboso
 Viento del NNE
Viento: NNE 22 km/h
Temperatura: 26°C
Rocío: 18°C
Humedad: 61%
Barómetro: 1014 hPa
Clouds: Parcialmente nuboso
Visibility: 10 km
Cloud details: Few Clouds 549 m
Parcialmente nuboso 1067 m
2018/07/16 16:00 LEMH 161600Z 02012KT 350V070 9999 FEW018 SCT035 26/18 Q1014
 
LEIB - Ibiza/Es Codola, Spain
Distance from station: OSO 165km
Actualización: 16/07/2018 18:00
Despejado
Despejado
 Viento del SO
Viento: SO 26 km/h
Temperatura: 29°C
Indice Calor: 31°C
Rocío: 20°C
Humedad: 58%
Barómetro: 1015 hPa
Resumen: Despejado
Visibility: greater than 10 km
2018/07/16 16:00 LEIB 161600Z 22014KT 180V250 CAVOK 29/20 Q1015 NOSIG
LEBL - Barcelona Airpor, Spain
Distance from station: NNO 225km
Actualización: 16/07/2018 18:00
Few Clouds
Few Clouds
 Viento del S
Viento: S 17 km/h
Temperatura: 27°C
Indice Calor: 29°C
Rocío: 20°C
Humedad: 66%
Barómetro: 1013 hPa
Clouds: Few Clouds
Visibility: 10 km
Cloud details: Few Clouds 1524 m
2018/07/16 16:00 LEBL 161600Z 17009KT 130V200 9999 FEW050 27/20 Q1013 NOSIG
 
LEVC - Valencia (civ/Mi, Spain
Distance from station: NO 188km
Actualización: 16/07/2018 18:00
Few Clouds
Few Clouds
 Viento del SE
Viento: SE 22 km/h
Temperatura: 35°C
Rocío: 9°C
Humedad: 20%
Barómetro: 1013 hPa
Clouds: Few Clouds
Visibility: 10 km
Cloud details: Few Clouds 1219 m
2018/07/16 16:00 LEVC 161600Z 13012KT 110V170 9999 FEW040 35/09 Q1013 NOSIG
LEGE - Gerona/Costa Bra, Spain
Distance from station: N 276km
Actualización: 16/07/2018 18:00
Few Clouds
Few Clouds
 Viento del SSO
Viento: SSO 13 km/h
Temperatura: 27°C
Indice Calor: 28°C
Rocío: 16°C
Humedad: 51%
Barómetro: 1013 hPa
Clouds: Few Clouds
Visibility: 10 km
Cloud details: Few Clouds 1067 m
2018/07/16 16:00 LEGE 161600Z 21007KT 190V260 9999 FEW035 27/16 Q1013
 
LEAL - Alicante/El Alte, Spain
Distance from station: OSO 344km
Actualización: 16/07/2018 18:00
Despejado
Despejado
 Viento del S
Viento: S 30 km/h
Temperatura: 30°C
Indice Calor: 31°C
Rocío: 18°C
Humedad: 49%
Barómetro: 1014 hPa
Resumen: Despejado
Visibility: greater than 10 km
2018/07/16 16:00 LEAL 161600Z 18016KT 140V230 CAVOK 30/18 Q1014 NOSIG
LEAM - Almeria Airport, Spain
Distance from station: SSO 56km
Actualización: 16/07/2018 18:00
Despejado
Despejado
 Viento del SSO
Viento: SSO 11 km/h
Temperatura: 23°C
Rocío: 18°C
Humedad: 74%
Barómetro: 1016 hPa
Resumen: Despejado
Visibility: greater than 10 km
2018/07/16 16:00 LEAM 161600Z 20006KT 160V250 CAVOK 23/18 Q1016
 
LEZG - Zaragoza (mil/Ci, Spain
Distance from station: NO 431km
Actualización: 16/07/2018 18:00
Few Clouds
Few Clouds
 Viento del NO
Viento: NO 43 km/h
Temperatura: 27°C
Indice Calor: 27°C
Rocío: 13°C
Humedad: 42%
Barómetro: 1017 hPa
Clouds: Few Clouds
Visibility: 10 km
Cloud details: Few Clouds 1524 m
2018/07/16 16:00 LEZG 161600Z 31023KT 280V350 9999 FEW050 27/13 Q1017
LEMD - Madrid/Barajas, Spain
Distance from station: ONO 234km
Actualización: 16/07/2018 18:00
Few Clouds
Few Clouds
 Viento del E
Viento: E 9 km/h
Temperatura: 30°C
Rocío: 9°C
Humedad: 27%
Barómetro: 1018 hPa
Clouds: Few Clouds
Visibility: 10 km
Cloud details: Few Clouds 2438 m
2018/07/16 16:00 LEMD 161600Z 08005KT 360V140 9999 FEW080 30/09 Q1018 NOSIG
 
LEGR - Granada Airport, Spain
Distance from station: OSO 62km
Actualización: 16/07/2018 18:00
Despejado
Despejado
 Viento del varies
Viento: varies 9 km/h
Temperatura: 32°C
Rocío: 7°C
Humedad: 21%
Barómetro: 1018 hPa
Resumen: Despejado
Visibility: greater than 10 km
2018/07/16 16:00 LEGR 161600Z VRB05KT CAVOK 32/07 Q1018
LEMG - Malaga (civ/Mil), Spain
Distance from station: OSO 227km
Actualización: 16/07/2018 18:00
Despejado
Despejado
 Viento del OSO
Viento: OSO 17 km/h
Temperatura: 35°C
Rocío: 6°C
Humedad: 16%
Barómetro: 1014 hPa
Resumen: Despejado
Visibility: greater than 10 km
2018/07/16 16:00 LEMG 161600Z 25009KT 220V280 CAVOK 35/06 Q1014 NOSIG
 
LEZL - Sevilla (civ/Mil, Spain
Distance from station: S 318km
Actualización: 16/07/2018 18:00
Despejado
Despejado
 Viento del N
Viento: N 7 km/h
Temperatura: 32°C
Rocío: 13°C
Humedad: 31%
Barómetro: 1016 hPa
Resumen: Despejado
Visibility: greater than 10 km
2018/07/16 16:00 LEZL 161600Z 35004KT 290V090 CAVOK 32/13 Q1016 NOSIG
LEVT - Vitoria, Spain
Distance from station: NO 226km
Actualización: 16/07/2018 18:00
Muy nuboso
Muy nuboso
 Viento del N
Viento: N 20 km/h
Temperatura: 20°C
Rocío: 15°C
Humedad: 73%
Barómetro: 1022 hPa
Clouds: Muy nuboso
Visibility: 10 km
Cloud details: Parcialmente nuboso 610 m
Muy nuboso 914 m
2018/07/16 16:00 LEVT 161600Z 35011KT 320V020 9999 SCT020 BKN030 20/15 Q1022
 
LEBB - Bilbao/Sondica, Spain
Distance from station: NNO 235km
Actualización: 16/07/2018 18:00
Parcialmente nuboso
Parcialmente nuboso
 Viento del NNO
Viento: NNO 22 km/h
Temperatura: 23°C
Rocío: 18°C
Humedad: 74%
Barómetro: 1021 hPa
Clouds: Parcialmente nuboso
Visibility: 10 km
Cloud details: Few Clouds 975 m
Parcialmente nuboso 1372 m
2018/07/16 16:00 LEBB 161600Z 33012KT 290V010 9999 FEW032 SCT045 23/18 Q1021 NOSIG
LESO - San Sebastian/Fu, Spain
Distance from station: N 231km
Actualización: 16/07/2018 18:00
Muy nuboso
Muy nuboso
 Viento del ONO
Viento: ONO 19 km/h
Temperatura: 23°C
Rocío: 19°C
Humedad: 78%
Barómetro: 1020 hPa
Clouds: Muy nuboso
Visibility: 10 km
Cloud details: Parcialmente nuboso 640 m
Parcialmente nuboso 823 m
Muy nuboso 1219 m
2018/07/16 16:00 LESO 161600Z 29010KT 230V350 9999 SCT021 SCT027TCU BKN040 23/19 Q1020
 
LEVD - Valladolid(Mil/C, Spain
Distance from station: ONO 239km
Actualización: 16/07/2018 18:00
Despejado
Despejado
 Viento del N
Viento: N 11 km/h
Temperatura: 25°C
Rocío: 9°C
Humedad: 36%
Barómetro: 1020 hPa
Resumen: Despejado
Visibility: greater than 10 km
2018/07/16 16:00 LEVD 161600Z 35006KT 280V050 CAVOK 25/09 Q1020
LESA - Salamanca (civ/M, Spain
Distance from station: ONO 349km
Actualización: 16/07/2018 18:00
Parcialmente nuboso
Parcialmente nuboso
 Viento del varies
Viento: varies 4 km/h
Temperatura: 27°C
Rocío: 11°C
Humedad: 37%
Barómetro: 1021 hPa
Clouds: Parcialmente nuboso
Visibility: 10 km
Cloud details: Parcialmente nuboso 1372 m
2018/07/16 16:00 LESA 161600Z VRB02KT 9999 SCT045 27/11 Q1021
 
LEXJ - Santander/Paraya, Spain
Distance from station: NNO 247km
Actualización: 16/07/2018 18:00
Parcialmente nuboso
Parcialmente nuboso
 Viento del ONO
Viento: ONO 13 km/h
Temperatura: 23°C
Rocío: 17°C
Humedad: 69%
Barómetro: 1021 hPa
Clouds: Parcialmente nuboso
Visibility: 10 km
Cloud details: Parcialmente nuboso 853 m
2018/07/16 16:00 LEXJ 161600Z 30007KT 250V360 9999 SCT028 23/17 Q1021
LEAS - Asturias/Aviles, Spain
Distance from station: NO 214km
Actualización: 16/07/2018 18:00
Few Clouds
Few Clouds
 Viento del ONO
Viento: ONO 11 km/h
Temperatura: 22°C
Rocío: 17°C
Humedad: 73%
Barómetro: 1021 hPa
Clouds: Few Clouds
Visibility: 10 km
Cloud details: Few Clouds 488 m
2018/07/16 16:00 LEAS 161600Z 29006KT 240V350 9999 FEW016 22/17 Q1021 NOSIG
 
LECO - La Coruna/Alvedr, Spain
Distance from station: ONO 222km
Actualización: 16/07/2018 18:00
Muy nuboso
Muy nuboso
 Viento del NO
Viento: NO 15 km/h
Temperatura: 21°C
Rocío: 16°C
Humedad: 73%
Barómetro: 1022 hPa
Clouds: Muy nuboso
Visibility: 10 km
Cloud details: Parcialmente nuboso 853 m
Muy nuboso 1158 m
2018/07/16 16:00 LECO 161600Z 32008KT 260V010 9999 SCT028 BKN038 21/16 Q1022 NOSIG
LEVX - Vigo/Peinador, Spain
Distance from station: O 214km
Actualización: 16/07/2018 18:00
Few Clouds
Few Clouds
 Viento del O
Viento: O 19 km/h
Temperatura: 21°C
Rocío: 14°C
Humedad: 64%
Barómetro: 1022 hPa
Clouds: Few Clouds
Visibility: 10 km
Cloud details: Few Clouds 762 m
2018/07/16 16:00 LEVX 161600Z 28010KT 9999 FEW025 21/14 Q1022 NOSIG